sensor_id;sensor_type;location;lat;lon;timestamp;pressure;altitude;pressure_sealevel;temperature;humidity
4469;BME280;2247;42.666;23.292;2022-10-26T00:00:26;94853.88;;;18.68;54.46
4469;BME280;2247;42.666;23.292;2022-10-26T00:02:54;94847.91;;;18.71;54.60
4469;BME280;2247;42.666;23.292;2022-10-26T00:05:21;94842.91;;;18.78;54.21
4469;BME280;2247;42.666;23.292;2022-10-26T00:07:49;94841.66;;;18.84;54.16
4469;BME280;2247;42.666;23.292;2022-10-26T00:10:16;94840.72;;;18.80;54.12
4469;BME280;2247;42.666;23.292;2022-10-26T00:12:47;94842.59;;;18.88;53.96
4469;BME280;2247;42.666;23.292;2022-10-26T00:15:17;94830.50;;;18.82;54.12
4469;BME280;2247;42.666;23.292;2022-10-26T00:17:44;94842.47;;;18.84;54.13
4469;BME280;2247;42.666;23.292;2022-10-26T00:20:11;94846.84;;;18.80;54.34
4469;BME280;2247;42.666;23.292;2022-10-26T00:22:38;94845.28;;;18.79;54.20
4469;BME280;2247;42.666;23.292;2022-10-26T00:25:06;94839.78;;;18.84;54.14
4469;BME280;2247;42.666;23.292;2022-10-26T00:27:33;94836.94;;;18.81;53.87
4469;BME280;2247;42.666;23.292;2022-10-26T00:30:00;94849.19;;;18.82;53.89
4469;BME280;2247;42.666;23.292;2022-10-26T00:32:29;94854.22;;;18.83;54.03
4469;BME280;2247;42.666;23.292;2022-10-26T00:34:56;94849.97;;;18.82;53.79
4469;BME280;2247;42.666;23.292;2022-10-26T00:37:23;94852.03;;;18.85;53.86
4469;BME280;2247;42.666;23.292;2022-10-26T00:39:50;94842.13;;;18.77;54.00
4469;BME280;2247;42.666;23.292;2022-10-26T00:42:19;94851.41;;;18.80;53.71
4469;BME280;2247;42.666;23.292;2022-10-26T00:44:57;94846.38;;;18.78;53.80
4469;BME280;2247;42.666;23.292;2022-10-26T00:47:32;94836.31;;;18.75;53.83
4469;BME280;2247;42.666;23.292;2022-10-26T00:50:03;94843.38;;;18.71;54.00
4469;BME280;2247;42.666;23.292;2022-10-26T00:52:32;94849.66;;;18.75;53.88
4469;BME280;2247;42.666;23.292;2022-10-26T00:55:00;94839.16;;;18.79;53.97
4469;BME280;2247;42.666;23.292;2022-10-26T00:57:27;94837.06;;;18.67;54.02
4469;BME280;2247;42.666;23.292;2022-10-26T00:59:57;94839.09;;;18.62;54.37
4469;BME280;2247;42.666;23.292;2022-10-26T01:02:25;94836.91;;;18.64;54.42
4469;BME280;2247;42.666;23.292;2022-10-26T01:04:54;94838.31;;;18.61;54.03
4469;BME280;2247;42.666;23.292;2022-10-26T01:07:22;94833.59;;;18.58;54.42
4469;BME280;2247;42.666;23.292;2022-10-26T01:09:50;94831.38;;;18.60;53.94
4469;BME280;2247;42.666;23.292;2022-10-26T01:12:19;94823.22;;;18.57;53.83
4469;BME280;2247;42.666;23.292;2022-10-26T01:14:45;94821.13;;;18.54;54.10
4469;BME280;2247;42.666;23.292;2022-10-26T01:17:32;94830.56;;;18.51;54.25
4469;BME280;2247;42.666;23.292;2022-10-26T01:23:07;94821.44;;;18.43;54.09
4469;BME280;2247;42.666;23.292;2022-10-26T01:26:06;94824.53;;;18.37;54.04
4469;BME280;2247;42.666;23.292;2022-10-26T01:28:47;94828.31;;;18.36;54.17
4469;BME280;2247;42.666;23.292;2022-10-26T01:31:23;94834.72;;;18.35;54.18
4469;BME280;2247;42.666;23.292;2022-10-26T01:33:57;94833.78;;;18.31;54.42
4469;BME280;2247;42.666;23.292;2022-10-26T01:36:31;94827.66;;;18.30;54.53
4469;BME280;2247;42.666;23.292;2022-10-26T01:39:04;94825.16;;;18.34;54.17
4469;BME280;2247;42.666;23.292;2022-10-26T01:41:37;94830.19;;;18.35;54.38
4469;BME280;2247;42.666;23.292;2022-10-26T01:44:11;94824.34;;;18.33;54.24
4469;BME280;2247;42.666;23.292;2022-10-26T01:46:44;94808.84;;;18.35;53.98
4469;BME280;2247;42.666;23.292;2022-10-26T01:49:15;94817.00;;;18.30;54.38
4469;BME280;2247;42.666;23.292;2022-10-26T01:51:48;94812.44;;;18.31;54.22
4469;BME280;2247;42.666;23.292;2022-10-26T01:54:16;94813.84;;;18.28;54.44
4469;BME280;2247;42.666;23.292;2022-10-26T01:56:44;94805.81;;;18.28;54.48
4469;BME280;2247;42.666;23.292;2022-10-26T01:59:29;94810.84;;;18.30;54.58
4469;BME280;2247;42.666;23.292;2022-10-26T02:02:42;94816.66;;;18.23;54.77
4469;BME280;2247;42.666;23.292;2022-10-26T02:05:35;94802.47;;;18.14;54.89
4469;BME280;2247;42.666;23.292;2022-10-26T02:08:16;94805.31;;;18.18;54.82
4469;BME280;2247;42.666;23.292;2022-10-26T02:11:05;94812.88;;;18.24;54.92
4469;BME280;2247;42.666;23.292;2022-10-26T02:13:41;94816.16;;;18.21;54.71
4469;BME280;2247;42.666;23.292;2022-10-26T02:16:18;94817.88;;;18.26;54.76
4469;BME280;2247;42.666;23.292;2022-10-26T02:18:54;94821.34;;;18.18;54.92
4469;BME280;2247;42.666;23.292;2022-10-26T02:21:30;94827.13;;;18.11;54.96
4469;BME280;2247;42.666;23.292;2022-10-26T02:24:00;94825.22;;;18.12;55.01
4469;BME280;2247;42.666;23.292;2022-10-26T02:26:30;94817.69;;;18.14;54.96
4469;BME280;2247;42.666;23.292;2022-10-26T02:29:03;94817.88;;;18.17;54.75
4469;BME280;2247;42.666;23.292;2022-10-26T02:31:31;94813.78;;;18.11;54.88
4469;BME280;2247;42.666;23.292;2022-10-26T02:34:06;94823.22;;;18.17;54.76
4469;BME280;2247;42.666;23.292;2022-10-26T02:36:36;94825.69;;;18.14;54.83
4469;BME280;2247;42.666;23.292;2022-10-26T02:39:06;94828.19;;;18.10;54.75
4469;BME280;2247;42.666;23.292;2022-10-26T02:41:35;94829.59;;;18.07;54.85
4469;BME280;2247;42.666;23.292;2022-10-26T02:44:09;94822.63;;;17.98;55.11
4469;BME280;2247;42.666;23.292;2022-10-26T02:46:39;94829.97;;;17.92;55.33
4469;BME280;2247;42.666;23.292;2022-10-26T02:49:08;94825.13;;;17.94;55.70
4469;BME280;2247;42.666;23.292;2022-10-26T02:51:39;94830.47;;;17.94;55.40
4469;BME280;2247;42.666;23.292;2022-10-26T02:54:13;94830.31;;;17.91;55.51
4469;BME280;2247;42.666;23.292;2022-10-26T02:56:47;94829.94;;;17.84;55.75
4469;BME280;2247;42.666;23.292;2022-10-26T02:59:19;94829.47;;;17.82;55.71
4469;BME280;2247;42.666;23.292;2022-10-26T03:01:50;94831.50;;;17.85;55.81
4469;BME280;2247;42.666;23.292;2022-10-26T03:04:18;94826.59;;;17.78;56.09
4469;BME280;2247;42.666;23.292;2022-10-26T03:06:51;94838.69;;;17.76;56.19
4469;BME280;2247;42.666;23.292;2022-10-26T03:09:18;94845.09;;;17.75;56.66
4469;BME280;2247;42.666;23.292;2022-10-26T03:11:46;94847.81;;;17.61;57.66
4469;BME280;2247;42.666;23.292;2022-10-26T03:14:12;94861.53;;;17.54;57.80
4469;BME280;2247;42.666;23.292;2022-10-26T03:16:40;94856.22;;;17.54;58.12
4469;BME280;2247;42.666;23.292;2022-10-26T03:19:07;94862.75;;;17.48;58.13
4469;BME280;2247;42.666;23.292;2022-10-26T03:21:36;94871.84;;;17.47;58.14
4469;BME280;2247;42.666;23.292;2022-10-26T03:24:05;94868.38;;;17.47;58.68
4469;BME280;2247;42.666;23.292;2022-10-26T03:26:32;94870.84;;;17.43;58.76
4469;BME280;2247;42.666;23.292;2022-10-26T03:28:59;94878.38;;;17.41;58.93
4469;BME280;2247;42.666;23.292;2022-10-26T03:31:26;94872.84;;;17.38;58.97
4469;BME280;2247;42.666;23.292;2022-10-26T03:33:53;94871.59;;;17.35;59.59
4469;BME280;2247;42.666;23.292;2022-10-26T03:36:20;94881.63;;;17.38;59.77
4469;BME280;2247;42.666;23.292;2022-10-26T03:38:50;94874.25;;;17.35;59.63
4469;BME280;2247;42.666;23.292;2022-10-26T03:41:17;94873.75;;;17.33;60.03
4469;BME280;2247;42.666;23.292;2022-10-26T03:43:45;94878.28;;;17.32;60.24
4469;BME280;2247;42.666;23.292;2022-10-26T03:46:13;94873.34;;;17.40;59.89
4469;BME280;2247;42.666;23.292;2022-10-26T03:48:40;94878.78;;;17.35;60.23
4469;BME280;2247;42.666;23.292;2022-10-26T03:51:08;94875.63;;;17.32;60.18
4469;BME280;2247;42.666;23.292;2022-10-26T03:53:37;94883.63;;;17.32;59.98
4469;BME280;2247;42.666;23.292;2022-10-26T03:56:06;94875.00;;;17.36;60.31
4469;BME280;2247;42.666;23.292;2022-10-26T03:58:33;94874.97;;;17.27;60.69
4469;BME280;2247;42.666;23.292;2022-10-26T04:01:00;94877.84;;;17.17;60.87
4469;BME280;2247;42.666;23.292;2022-10-26T04:03:26;94871.34;;;17.09;61.11
4469;BME280;2247;42.666;23.292;2022-10-26T04:05:53;94875.50;;;17.02;61.53
4469;BME280;2247;42.666;23.292;2022-10-26T04:08:23;94882.59;;;17.06;61.23
4469;BME280;2247;42.666;23.292;2022-10-26T04:10:51;94882.59;;;17.06;61.21
4469;BME280;2247;42.666;23.292;2022-10-26T04:13:20;94876.66;;;17.09;61.00
4469;BME280;2247;42.666;23.292;2022-10-26T04:15:47;94867.28;;;17.12;60.19
4469;BME280;2247;42.666;23.292;2022-10-26T04:18:13;94878.25;;;17.10;60.35
4469;BME280;2247;42.666;23.292;2022-10-26T04:20:40;94879.16;;;17.06;60.29
4469;BME280;2247;42.666;23.292;2022-10-26T04:23:10;94893.34;;;17.15;59.93
4469;BME280;2247;42.666;23.292;2022-10-26T04:25:38;94887.81;;;17.11;60.39
4469;BME280;2247;42.666;23.292;2022-10-26T04:28:06;94882.69;;;17.15;59.94
4469;BME280;2247;42.666;23.292;2022-10-26T04:30:35;94882.19;;;17.13;59.91
4469;BME280;2247;42.666;23.292;2022-10-26T04:33:05;94874.41;;;17.03;60.02
4469;BME280;2247;42.666;23.292;2022-10-26T04:35:32;94882.69;;;17.15;60.27
4469;BME280;2247;42.666;23.292;2022-10-26T04:38:00;94881.09;;;17.14;60.20
4469;BME280;2247;42.666;23.292;2022-10-26T04:40:28;94887.53;;;17.13;60.47
4469;BME280;2247;42.666;23.292;2022-10-26T04:42:56;94889.09;;;17.14;60.35
4469;BME280;2247;42.666;23.292;2022-10-26T04:45:23;94891.16;;;17.17;59.95
4469;BME280;2247;42.666;23.292;2022-10-26T04:48:04;94879.81;;;17.11;60.32
4469;BME280;2247;42.666;23.292;2022-10-26T04:50:32;94894.72;;;17.12;60.28
4469;BME280;2247;42.666;23.292;2022-10-26T04:53:00;94893.72;;;17.08;60.45
4469;BME280;2247;42.666;23.292;2022-10-26T04:55:27;94903.22;;;17.01;60.41
4469;BME280;2247;42.666;23.292;2022-10-26T04:57:56;94887.63;;;16.80;60.30
4469;BME280;2247;42.666;23.292;2022-10-26T05:00:23;94905.97;;;16.96;60.52
4469;BME280;2247;42.666;23.292;2022-10-26T05:02:50;94893.66;;;16.86;60.51
4469;BME280;2247;42.666;23.292;2022-10-26T05:05:18;94905.09;;;17.00;60.50
4469;BME280;2247;42.666;23.292;2022-10-26T05:07:53;94903.13;;;17.06;59.95
4469;BME280;2247;42.666;23.292;2022-10-26T05:10:20;94905.56;;;17.02;60.19
4469;BME280;2247;42.666;23.292;2022-10-26T05:12:49;94907.94;;;17.04;60.60
4469;BME280;2247;42.666;23.292;2022-10-26T05:15:17;94900.94;;;17.08;60.68
4469;BME280;2247;42.666;23.292;2022-10-26T05:17:44;94910.88;;;17.16;60.76
4469;BME280;2247;42.666;23.292;2022-10-26T05:20:10;94909.28;;;17.28;60.13
4469;BME280;2247;42.666;23.292;2022-10-26T05:22:40;94900.56;;;17.37;60.20
4469;BME280;2247;42.666;23.292;2022-10-26T05:25:07;94898.19;;;17.49;59.76
4469;BME280;2247;42.666;23.292;2022-10-26T05:27:34;94906.47;;;17.61;59.26
4469;BME280;2247;42.666;23.292;2022-10-26T05:30:01;94899.53;;;17.60;58.89
4469;BME280;2247;42.666;23.292;2022-10-26T05:32:28;94916.78;;;17.76;58.56
4469;BME280;2247;42.666;23.292;2022-10-26T05:34:55;94920.59;;;17.84;58.67
4469;BME280;2247;42.666;23.292;2022-10-26T05:37:22;94918.34;;;17.99;58.36
4469;BME280;2247;42.666;23.292;2022-10-26T05:40:01;94935.50;;;18.07;57.69
4469;BME280;2247;42.666;23.292;2022-10-26T05:42:28;94922.88;;;18.21;57.75
4469;BME280;2247;42.666;23.292;2022-10-26T05:44:55;94917.41;;;18.26;57.42
4469;BME280;2247;42.666;23.292;2022-10-26T05:47:22;94919.38;;;18.43;57.21
4469;BME280;2247;42.666;23.292;2022-10-26T05:49:49;94929.25;;;18.65;57.22
4469;BME280;2247;42.666;23.292;2022-10-26T05:52:16;94932.44;;;18.75;56.82
4469;BME280;2247;42.666;23.292;2022-10-26T05:54:44;94936.97;;;18.75;56.90
4469;BME280;2247;42.666;23.292;2022-10-26T05:57:13;94936.31;;;19.00;56.59
4469;BME280;2247;42.666;23.292;2022-10-26T05:59:41;94929.94;;;19.27;55.90
4469;BME280;2247;42.666;23.292;2022-10-26T06:02:13;94935.50;;;19.65;55.01
4469;BME280;2247;42.666;23.292;2022-10-26T06:04:46;94940.56;;;19.84;54.18
4469;BME280;2247;42.666;23.292;2022-10-26T06:07:15;94941.78;;;19.86;53.51
4469;BME280;2247;42.666;23.292;2022-10-26T06:09:45;94952.81;;;19.93;53.81
4469;BME280;2247;42.666;23.292;2022-10-26T06:12:15;94949.34;;;20.01;53.37
4469;BME280;2247;42.666;23.292;2022-10-26T06:14:43;94954.69;;;20.01;53.06
4469;BME280;2247;42.666;23.292;2022-10-26T06:17:22;94953.44;;;20.25;52.88
4469;BME280;2247;42.666;23.292;2022-10-26T06:20:02;94957.53;;;20.05;52.91
4469;BME280;2247;42.666;23.292;2022-10-26T06:22:45;94953.91;;;20.18;52.80
4469;BME280;2247;42.666;23.292;2022-10-26T06:25:23;94956.56;;;20.35;52.72
4469;BME280;2247;42.666;23.292;2022-10-26T06:28:01;94956.25;;;20.37;52.70
4469;BME280;2247;42.666;23.292;2022-10-26T06:30:31;94958.78;;;20.33;52.82
4469;BME280;2247;42.666;23.292;2022-10-26T06:32:58;94959.84;;;20.50;52.49
4469;BME280;2247;42.666;23.292;2022-10-26T06:35:31;94959.06;;;20.49;52.38
4469;BME280;2247;42.666;23.292;2022-10-26T06:38:03;94963.31;;;20.59;52.21
4469;BME280;2247;42.666;23.292;2022-10-26T06:40:32;94960.16;;;20.57;52.18
4469;BME280;2247;42.666;23.292;2022-10-26T06:43:02;94960.13;;;20.74;51.94
4469;BME280;2247;42.666;23.292;2022-10-26T06:45:30;94959.56;;;20.89;51.94
4469;BME280;2247;42.666;23.292;2022-10-26T06:48:02;94961.97;;;20.82;51.39
4469;BME280;2247;42.666;23.292;2022-10-26T06:50:35;94965.41;;;20.91;50.98
4469;BME280;2247;42.666;23.292;2022-10-26T06:53:12;94965.09;;;20.93;51.10
4469;BME280;2247;42.666;23.292;2022-10-26T06:55:44;94968.38;;;20.98;50.83
4469;BME280;2247;42.666;23.292;2022-10-26T06:58:16;94973.41;;;21.00;50.50
4469;BME280;2247;42.666;23.292;2022-10-26T07:00:44;94975.91;;;21.05;50.72
4469;BME280;2247;42.666;23.292;2022-10-26T07:03:13;94970.94;;;20.86;51.08
4469;BME280;2247;42.666;23.292;2022-10-26T07:05:40;94972.09;;;20.68;51.36
4469;BME280;2247;42.666;23.292;2022-10-26T07:08:07;94977.78;;;20.66;51.26
4469;BME280;2247;42.666;23.292;2022-10-26T07:10:34;94983.25;;;20.78;51.41
4469;BME280;2247;42.666;23.292;2022-10-26T07:13:03;94983.09;;;20.75;51.25
4469;BME280;2247;42.666;23.292;2022-10-26T07:15:31;94984.84;;;20.71;51.31
4469;BME280;2247;42.666;23.292;2022-10-26T07:17:58;94980.72;;;20.82;51.12
4469;BME280;2247;42.666;23.292;2022-10-26T07:20:25;94976.59;;;20.93;51.08
4469;BME280;2247;42.666;23.292;2022-10-26T07:22:53;94970.69;;;20.70;51.20
4469;BME280;2247;42.666;23.292;2022-10-26T07:25:21;94979.13;;;20.90;50.93
4469;BME280;2247;42.666;23.292;2022-10-26T07:27:49;94979.63;;;20.83;51.08
4469;BME280;2247;42.666;23.292;2022-10-26T07:30:17;94978.97;;;20.86;51.43
4469;BME280;2247;42.666;23.292;2022-10-26T07:32:45;94978.81;;;20.91;51.55
4469;BME280;2247;42.666;23.292;2022-10-26T07:35:12;94980.19;;;20.97;51.09
4469;BME280;2247;42.666;23.292;2022-10-26T07:37:39;94980.84;;;20.94;50.88
4469;BME280;2247;42.666;23.292;2022-10-26T07:40:07;94972.03;;;20.94;50.45
4469;BME280;2247;42.666;23.292;2022-10-26T07:42:36;94979.91;;;20.81;51.31
4469;BME280;2247;42.666;23.292;2022-10-26T07:45:04;94976.63;;;20.84;50.97
4469;BME280;2247;42.666;23.292;2022-10-26T07:47:32;94976.00;;;20.88;51.11
4469;BME280;2247;42.666;23.292;2022-10-26T07:50:10;94971.84;;;20.99;51.09
4469;BME280;2247;42.666;23.292;2022-10-26T07:52:39;94971.97;;;21.02;51.28
4469;BME280;2247;42.666;23.292;2022-10-26T07:55:07;94971.34;;;21.05;51.27
4469;BME280;2247;42.666;23.292;2022-10-26T07:57:35;94973.22;;;21.05;51.00
4469;BME280;2247;42.666;23.292;2022-10-26T08:00:03;94970.41;;;21.01;50.65
4469;BME280;2247;42.666;23.292;2022-10-26T08:02:30;94977.63;;;21.09;50.97
4469;BME280;2247;42.666;23.292;2022-10-26T08:04:57;94966.88;;;21.09;50.51
4469;BME280;2247;42.666;23.292;2022-10-26T08:07:25;94966.41;;;21.16;50.51
4469;BME280;2247;42.666;23.292;2022-10-26T08:09:52;94971.78;;;21.16;50.25
4469;BME280;2247;42.666;23.292;2022-10-26T08:12:20;94966.56;;;21.11;50.80
4469;BME280;2247;42.666;23.292;2022-10-26T08:14:46;94973.03;;;21.10;50.56
4469;BME280;2247;42.666;23.292;2022-10-26T08:17:14;94969.72;;;21.13;50.52
4469;BME280;2247;42.666;23.292;2022-10-26T08:19:41;94969.25;;;21.11;50.09
4469;BME280;2247;42.666;23.292;2022-10-26T08:22:08;94976.28;;;20.95;50.58
4469;BME280;2247;42.666;23.292;2022-10-26T08:24:36;94968.25;;;20.95;50.57
4469;BME280;2247;42.666;23.292;2022-10-26T08:27:04;94971.13;;;20.81;51.08
4469;BME280;2247;42.666;23.292;2022-10-26T08:29:31;94967.94;;;20.88;50.92
4469;BME280;2247;42.666;23.292;2022-10-26T08:31:58;94961.63;;;20.92;51.04
4469;BME280;2247;42.666;23.292;2022-10-26T08:34:25;94966.16;;;21.00;50.95
4469;BME280;2247;42.666;23.292;2022-10-26T08:36:52;94965.66;;;21.07;50.34
4469;BME280;2247;42.666;23.292;2022-10-26T08:39:20;94965.97;;;21.05;50.58
4469;BME280;2247;42.666;23.292;2022-10-26T08:41:54;94957.84;;;20.93;50.83
4469;BME280;2247;42.666;23.292;2022-10-26T08:44:27;94962.88;;;20.95;50.96
4469;BME280;2247;42.666;23.292;2022-10-26T08:46:59;94966.75;;;21.06;51.09
4469;BME280;2247;42.666;23.292;2022-10-26T08:49:34;94967.03;;;21.13;51.02
4469;BME280;2247;42.666;23.292;2022-10-26T08:52:04;94966.41;;;21.16;50.04
4469;BME280;2247;42.666;23.292;2022-10-26T08:54:36;94962.31;;;21.10;50.39
4469;BME280;2247;42.666;23.292;2022-10-26T08:57:13;94977.28;;;21.11;49.98
4469;BME280;2247;42.666;23.292;2022-10-26T08:59:47;94973.38;;;21.08;49.92
4469;BME280;2247;42.666;23.292;2022-10-26T09:02:16;94977.66;;;21.01;50.16
4469;BME280;2247;42.666;23.292;2022-10-26T09:04:43;94978.28;;;21.06;50.29
4469;BME280;2247;42.666;23.292;2022-10-26T09:07:21;94978.75;;;21.08;49.68
4469;BME280;2247;42.666;23.292;2022-10-26T09:09:57;94979.25;;;21.02;49.54
4469;BME280;2247;42.666;23.292;2022-10-26T09:12:35;94973.50;;;21.12;49.75
4469;BME280;2247;42.666;23.292;2022-10-26T09:15:12;94967.69;;;21.18;48.89
4469;BME280;2247;42.666;23.292;2022-10-26T09:17:47;94969.25;;;21.19;47.02
4469;BME280;2247;42.666;23.292;2022-10-26T09:20:41;94965.66;;;21.07;46.91
4469;BME280;2247;42.666;23.292;2022-10-26T09:23:22;94971.94;;;21.11;47.30
4469;BME280;2247;42.666;23.292;2022-10-26T09:25:58;94964.38;;;21.21;47.62
4469;BME280;2247;42.666;23.292;2022-10-26T09:28:33;94963.69;;;21.25;47.32
4469;BME280;2247;42.666;23.292;2022-10-26T09:31:03;94966.97;;;21.30;47.30
4469;BME280;2247;42.666;23.292;2022-10-26T09:33:34;94969.94;;;21.37;47.47
4469;BME280;2247;42.666;23.292;2022-10-26T09:36:05;94963.34;;;21.35;47.62
4469;BME280;2247;42.666;23.292;2022-10-26T09:38:35;94956.88;;;21.36;47.86
4469;BME280;2247;42.666;23.292;2022-10-26T09:41:14;94965.72;;;21.36;47.77
4469;BME280;2247;42.666;23.292;2022-10-26T09:43:45;94962.56;;;21.34;47.88
4469;BME280;2247;42.666;23.292;2022-10-26T09:46:19;94957.66;;;21.36;47.71
4469;BME280;2247;42.666;23.292;2022-10-26T09:48:50;94957.78;;;21.40;47.69
4469;BME280;2247;42.666;23.292;2022-10-26T09:51:19;94959.03;;;21.42;47.62
4469;BME280;2247;42.666;23.292;2022-10-26T09:53:48;94955.06;;;21.48;47.50
4469;BME280;2247;42.666;23.292;2022-10-26T09:56:16;94947.84;;;21.40;47.37
4469;BME280;2247;42.666;23.292;2022-10-26T09:58:49;94957.31;;;21.38;46.19
4469;BME280;2247;42.666;23.292;2022-10-26T10:01:26;94943.34;;;21.23;44.01
4469;BME280;2247;42.666;23.292;2022-10-26T10:04:09;94940.09;;;21.18;45.14
4469;BME280;2247;42.666;23.292;2022-10-26T10:06:42;94942.41;;;21.28;44.99
4469;BME280;2247;42.666;23.292;2022-10-26T10:09:11;94939.41;;;21.30;45.53
4469;BME280;2247;42.666;23.292;2022-10-26T10:11:39;94940.16;;;21.30;46.02
4469;BME280;2247;42.666;23.292;2022-10-26T10:14:14;94940.63;;;21.32;45.15
4469;BME280;2247;42.666;23.292;2022-10-26T10:16:49;94929.44;;;21.30;45.32
4469;BME280;2247;42.666;23.292;2022-10-26T10:19:22;94932.06;;;21.39;45.94
4469;BME280;2247;42.666;23.292;2022-10-26T10:21:54;94932.53;;;21.41;46.75
4469;BME280;2247;42.666;23.292;2022-10-26T10:24:24;94927.31;;;21.44;46.17
4469;BME280;2247;42.666;23.292;2022-10-26T10:27:00;94927.91;;;21.50;46.57
4469;BME280;2247;42.666;23.292;2022-10-26T10:29:30;94930.09;;;21.56;46.35
4469;BME280;2247;42.666;23.292;2022-10-26T10:31:59;94919.16;;;21.61;46.21
4469;BME280;2247;42.666;23.292;2022-10-26T10:34:26;94918.81;;;21.63;46.08
4469;BME280;2247;42.666;23.292;2022-10-26T10:36:55;94918.22;;;21.57;46.18
4469;BME280;2247;42.666;23.292;2022-10-26T10:39:35;94918.69;;;21.59;46.53
4469;BME280;2247;42.666;23.292;2022-10-26T10:42:04;94915.88;;;21.56;46.10
4469;BME280;2247;42.666;23.292;2022-10-26T10:44:34;94915.88;;;21.56;46.33
4469;BME280;2247;42.666;23.292;2022-10-26T10:47:02;94909.72;;;21.55;46.49
4469;BME280;2247;42.666;23.292;2022-10-26T10:49:30;94905.84;;;21.65;46.17
4469;BME280;2247;42.666;23.292;2022-10-26T10:51:58;94901.28;;;21.66;46.59
4469;BME280;2247;42.666;23.292;2022-10-26T10:54:28;94909.16;;;21.71;46.40
4469;BME280;2247;42.666;23.292;2022-10-26T10:57:04;94905.69;;;21.70;45.80
4469;BME280;2247;42.666;23.292;2022-10-26T10:59:58;94899.53;;;21.70;46.03
4469;BME280;2247;42.666;23.292;2022-10-26T11:05:59;94900.75;;;21.72;45.79
4469;BME280;2247;42.666;23.292;2022-10-26T11:08:31;94884.91;;;21.79;45.59
4469;BME280;2247;42.666;23.292;2022-10-26T11:11:06;94887.25;;;21.81;45.30
4469;BME280;2247;42.666;23.292;2022-10-26T11:13:36;94885.50;;;21.85;45.35
4469;BME280;2247;42.666;23.292;2022-10-26T11:16:11;94893.38;;;21.69;44.96
4469;BME280;2247;42.666;23.292;2022-10-26T11:18:42;94884.47;;;21.56;44.42
4469;BME280;2247;42.666;23.292;2022-10-26T11:21:21;94881.00;;;21.56;44.46
4469;BME280;2247;42.666;23.292;2022-10-26T11:23:51;94883.34;;;21.57;44.08
4469;BME280;2247;42.666;23.292;2022-10-26T11:26:26;94889.84;;;21.56;43.76
4469;BME280;2247;42.666;23.292;2022-10-26T11:28:58;94887.94;;;21.57;43.94
4469;BME280;2247;42.666;23.292;2022-10-26T11:31:32;94875.28;;;21.57;43.21
4469;BME280;2247;42.666;23.292;2022-10-26T11:34:13;94872.22;;;21.47;42.48
4469;BME280;2247;42.666;23.292;2022-10-26T11:36:44;94872.56;;;21.45;42.10
4469;BME280;2247;42.666;23.292;2022-10-26T11:39:19;94874.97;;;21.38;41.53
4469;BME280;2247;42.666;23.292;2022-10-26T11:41:50;94865.34;;;21.37;41.15
4469;BME280;2247;42.666;23.292;2022-10-26T11:44:25;94870.06;;;21.40;41.09
4469;BME280;2247;42.666;23.292;2022-10-26T11:47:00;94857.19;;;21.34;40.61
4469;BME280;2247;42.666;23.292;2022-10-26T11:49:33;94869.28;;;21.40;41.25
4469;BME280;2247;42.666;23.292;2022-10-26T11:52:09;94868.97;;;21.41;40.42
4469;BME280;2247;42.666;23.292;2022-10-26T11:54:41;94867.44;;;21.52;41.08
4469;BME280;2247;42.666;23.292;2022-10-26T11:57:14;94858.56;;;21.60;40.92
4469;BME280;2247;42.666;23.292;2022-10-26T11:59:44;94860.13;;;21.61;40.74
4469;BME280;2247;42.666;23.292;2022-10-26T12:02:16;94861.88;;;21.57;39.84
4469;BME280;2247;42.666;23.292;2022-10-26T12:04:47;94862.59;;;21.67;39.97
4469;BME280;2247;42.666;23.292;2022-10-26T12:07:21;94847.81;;;21.60;39.88
4469;BME280;2247;42.666;23.292;2022-10-26T12:09:49;94855.56;;;21.62;39.93
4469;BME280;2247;42.666;23.292;2022-10-26T12:12:21;94843.34;;;21.65;39.75
4469;BME280;2247;42.666;23.292;2022-10-26T12:14:57;94856.13;;;21.68;39.98
4469;BME280;2247;42.666;23.292;2022-10-26T12:17:30;94856.91;;;21.68;39.65
4469;BME280;2247;42.666;23.292;2022-10-26T12:20:04;94854.09;;;21.65;39.77
4469;BME280;2247;42.666;23.292;2022-10-26T12:22:36;94859.59;;;21.68;39.61
4469;BME280;2247;42.666;23.292;2022-10-26T12:25:09;94851.66;;;21.72;39.56
4469;BME280;2247;42.666;23.292;2022-10-26T12:27:52;94846.97;;;21.69;39.17
4469;BME280;2247;42.666;23.292;2022-10-26T12:30:37;94848.53;;;21.70;38.99
4469;BME280;2247;42.666;23.292;2022-10-26T12:33:27;94852.97;;;21.66;39.10
4469;BME280;2247;42.666;23.292;2022-10-26T12:35:57;94855.66;;;21.66;38.47
4469;BME280;2247;42.666;23.292;2022-10-26T12:38:54;94849.06;;;21.63;38.85
4469;BME280;2247;42.666;23.292;2022-10-26T12:41:24;94852.88;;;21.62;38.62
4469;BME280;2247;42.666;23.292;2022-10-26T12:44:02;94852.53;;;21.64;38.97
4469;BME280;2247;42.666;23.292;2022-10-26T12:46:49;94848.28;;;21.63;38.51
4469;BME280;2247;42.666;23.292;2022-10-26T12:52:41;94859.47;;;21.65;38.46
4469;BME280;2247;42.666;23.292;2022-10-26T12:55:19;94852.41;;;21.60;37.79
4469;BME280;2247;42.666;23.292;2022-10-26T12:57:58;94848.47;;;21.57;37.81
4469;BME280;2247;42.666;23.292;2022-10-26T13:00:31;94859.19;;;21.57;39.51
4469;BME280;2247;42.666;23.292;2022-10-26T13:03:11;94865.75;;;21.69;39.10
4469;BME280;2247;42.666;23.292;2022-10-26T13:08:47;94853.97;;;21.61;36.88
4469;BME280;2247;42.666;23.292;2022-10-26T13:11:17;94862.13;;;21.65;36.22
4469;BME280;2247;42.666;23.292;2022-10-26T13:13:51;94865.44;;;21.70;36.31
4469;BME280;2247;42.666;23.292;2022-10-26T13:16:19;94862.53;;;21.75;36.12
4469;BME280;2247;42.666;23.292;2022-10-26T13:18:46;94866.78;;;21.76;36.41
4469;BME280;2247;42.666;23.292;2022-10-26T13:21:17;94859.72;;;21.72;35.77
4469;BME280;2247;42.666;23.292;2022-10-26T13:23:54;94859.38;;;21.73;35.18
4469;BME280;2247;42.666;23.292;2022-10-26T13:26:24;94861.44;;;21.76;35.01
4469;BME280;2247;42.666;23.292;2022-10-26T13:28:52;94863.97;;;21.73;34.38
4469;BME280;2247;42.666;23.292;2022-10-26T13:31:51;94864.91;;;21.77;34.56
4469;BME280;2247;42.666;23.292;2022-10-26T13:34:21;94867.38;;;21.82;34.91
4469;BME280;2247;42.666;23.292;2022-10-26T13:36:52;94871.75;;;21.86;34.73
4469;BME280;2247;42.666;23.292;2022-10-26T13:39:28;94866.25;;;21.83;34.48
4469;BME280;2247;42.666;23.292;2022-10-26T13:41:59;94868.94;;;21.83;34.09
4469;BME280;2247;42.666;23.292;2022-10-26T13:44:29;94870.38;;;21.80;34.05